sensor_id;sensor_type;location;lat;lon;timestamp;P1;durP1;ratioP1;P2;durP2;ratioP2
71183;SDS011;58887;51.980;4.464;2023-09-19T00:02:20;2.23;;;1.75;;
71183;SDS011;58887;51.980;4.464;2023-09-19T00:04:45;1.92;;;1.51;;
71183;SDS011;58887;51.980;4.464;2023-09-19T00:07:11;2.17;;;1.69;;
71183;SDS011;58887;51.980;4.464;2023-09-19T00:09:37;1.66;;;1.29;;
71183;SDS011;58887;51.980;4.464;2023-09-19T00:12:04;1.76;;;1.36;;
71183;SDS011;58887;51.980;4.464;2023-09-19T00:14:30;1.87;;;1.41;;
71183;SDS011;58887;51.980;4.464;2023-09-19T00:16:59;2.41;;;1.83;;
71183;SDS011;58887;51.980;4.464;2023-09-19T00:19:26;2.37;;;1.78;;
71183;SDS011;58887;51.980;4.464;2023-09-19T00:21:51;1.93;;;1.44;;
71183;SDS011;58887;51.980;4.464;2023-09-19T00:24:18;2.39;;;1.82;;
71183;SDS011;58887;51.980;4.464;2023-09-19T00:26:43;2.04;;;1.60;;
71183;SDS011;58887;51.980;4.464;2023-09-19T00:29:11;1.97;;;1.58;;
71183;SDS011;58887;51.980;4.464;2023-09-19T00:31:38;1.90;;;1.51;;
71183;SDS011;58887;51.980;4.464;2023-09-19T00:34:04;1.65;;;1.35;;
71183;SDS011;58887;51.980;4.464;2023-09-19T00:36:31;1.75;;;1.42;;
71183;SDS011;58887;51.980;4.464;2023-09-19T00:38:56;1.70;;;1.39;;
71183;SDS011;58887;51.980;4.464;2023-09-19T00:41:22;1.56;;;1.26;;
71183;SDS011;58887;51.980;4.464;2023-09-19T00:43:49;1.80;;;1.43;;
71183;SDS011;58887;51.980;4.464;2023-09-19T00:46:19;2.02;;;1.59;;
71183;SDS011;58887;51.980;4.464;2023-09-19T00:48:44;1.94;;;1.52;;
71183;SDS011;58887;51.980;4.464;2023-09-19T00:51:11;2.13;;;1.69;;
71183;SDS011;58887;51.980;4.464;2023-09-19T00:53:45;1.69;;;1.36;;
71183;SDS011;58887;51.980;4.464;2023-09-19T00:56:11;2.42;;;1.91;;
71183;SDS011;58887;51.980;4.464;2023-09-19T00:58:37;2.20;;;1.72;;
71183;SDS011;58887;51.980;4.464;2023-09-19T01:01:03;2.43;;;1.89;;
71183;SDS011;58887;51.980;4.464;2023-09-19T01:03:32;2.24;;;1.72;;
71183;SDS011;58887;51.980;4.464;2023-09-19T01:06:01;2.32;;;1.76;;
71183;SDS011;58887;51.980;4.464;2023-09-19T01:08:27;2.60;;;1.93;;
71183;SDS011;58887;51.980;4.464;2023-09-19T01:11:57;2.80;;;2.08;;
71183;SDS011;58887;51.980;4.464;2023-09-19T01:16:50;2.47;;;1.86;;
71183;SDS011;58887;51.980;4.464;2023-09-19T01:20:01;2.53;;;1.86;;
71183;SDS011;58887;51.980;4.464;2023-09-19T01:22:42;3.65;;;2.61;;
71183;SDS011;58887;51.980;4.464;2023-09-19T01:28:32;2.62;;;1.83;;
71183;SDS011;58887;51.980;4.464;2023-09-19T01:31:09;3.04;;;2.11;;
71183;SDS011;58887;51.980;4.464;2023-09-19T01:33:55;2.51;;;1.73;;
71183;SDS011;58887;51.980;4.464;2023-09-19T01:36:29;2.85;;;1.97;;
71183;SDS011;58887;51.980;4.464;2023-09-19T01:39:01;3.16;;;2.14;;
71183;SDS011;58887;51.980;4.464;2023-09-19T01:47:17;3.03;;;2.02;;
71183;SDS011;58887;51.980;4.464;2023-09-19T01:49:55;3.39;;;2.26;;
71183;SDS011;58887;51.980;4.464;2023-09-19T01:52:47;2.88;;;1.97;;
71183;SDS011;58887;51.980;4.464;2023-09-19T01:55:17;3.27;;;2.25;;
71183;SDS011;58887;51.980;4.464;2023-09-19T01:58:05;3.18;;;2.20;;
71183;SDS011;58887;51.980;4.464;2023-09-19T02:00:39;2.64;;;1.79;;
71183;SDS011;58887;51.980;4.464;2023-09-19T02:03:08;2.70;;;1.82;;
71183;SDS011;58887;51.980;4.464;2023-09-19T02:05:35;2.95;;;2.00;;
71183;SDS011;58887;51.980;4.464;2023-09-19T02:08:01;2.85;;;1.95;;
71183;SDS011;58887;51.980;4.464;2023-09-19T02:10:26;2.77;;;1.91;;
71183;SDS011;58887;51.980;4.464;2023-09-19T02:12:52;2.74;;;1.88;;
71183;SDS011;58887;51.980;4.464;2023-09-19T02:15:17;3.18;;;2.14;;
71183;SDS011;58887;51.980;4.464;2023-09-19T02:17:43;2.98;;;2.00;;
71183;SDS011;58887;51.980;4.464;2023-09-19T02:20:10;3.17;;;2.15;;
71183;SDS011;58887;51.980;4.464;2023-09-19T02:22:40;2.60;;;1.82;;
71183;SDS011;58887;51.980;4.464;2023-09-19T02:25:07;2.71;;;1.91;;
71183;SDS011;58887;51.980;4.464;2023-09-19T02:27:33;2.16;;;1.52;;
71183;SDS011;58887;51.980;4.464;2023-09-19T02:29:59;2.75;;;1.92;;
71183;SDS011;58887;51.980;4.464;2023-09-19T02:32:29;3.18;;;2.24;;
71183;SDS011;58887;51.980;4.464;2023-09-19T02:34:56;3.45;;;2.42;;
71183;SDS011;58887;51.980;4.464;2023-09-19T02:37:23;2.76;;;1.94;;
71183;SDS011;58887;51.980;4.464;2023-09-19T02:39:48;2.74;;;1.94;;
71183;SDS011;58887;51.980;4.464;2023-09-19T02:42:14;3.23;;;2.23;;
71183;SDS011;58887;51.980;4.464;2023-09-19T02:44:39;2.87;;;1.95;;
71183;SDS011;58887;51.980;4.464;2023-09-19T02:47:05;2.63;;;1.77;;
71183;SDS011;58887;51.980;4.464;2023-09-19T02:49:30;2.67;;;1.80;;
71183;SDS011;58887;51.980;4.464;2023-09-19T02:51:56;2.76;;;1.86;;
71183;SDS011;58887;51.980;4.464;2023-09-19T02:54:23;2.35;;;1.58;;
71183;SDS011;58887;51.980;4.464;2023-09-19T02:56:49;2.42;;;1.64;;
71183;SDS011;58887;51.980;4.464;2023-09-19T02:59:14;2.96;;;2.02;;
71183;SDS011;58887;51.980;4.464;2023-09-19T03:01:45;2.66;;;1.83;;
71183;SDS011;58887;51.980;4.464;2023-09-19T03:04:13;2.63;;;1.82;;
71183;SDS011;58887;51.980;4.464;2023-09-19T03:06:42;2.52;;;1.74;;
71183;SDS011;58887;51.980;4.464;2023-09-19T03:09:09;2.42;;;1.70;;
71183;SDS011;58887;51.980;4.464;2023-09-19T03:11:36;2.20;;;1.56;;
71183;SDS011;58887;51.980;4.464;2023-09-19T03:14:02;2.58;;;1.84;;
71183;SDS011;58887;51.980;4.464;2023-09-19T03:16:28;2.46;;;1.74;;
71183;SDS011;58887;51.980;4.464;2023-09-19T03:18:53;2.07;;;1.46;;
71183;SDS011;58887;51.980;4.464;2023-09-19T03:21:19;2.46;;;1.73;;
71183;SDS011;58887;51.980;4.464;2023-09-19T03:23:44;2.56;;;1.80;;
71183;SDS011;58887;51.980;4.464;2023-09-19T03:26:11;2.53;;;1.80;;
71183;SDS011;58887;51.980;4.464;2023-09-19T03:28:38;2.64;;;1.85;;
71183;SDS011;58887;51.980;4.464;2023-09-19T03:31:05;2.14;;;1.50;;
71183;SDS011;58887;51.980;4.464;2023-09-19T03:33:31;2.18;;;1.56;;
71183;SDS011;58887;51.980;4.464;2023-09-19T03:35:58;2.42;;;1.71;;
71183;SDS011;58887;51.980;4.464;2023-09-19T03:38:24;2.44;;;1.68;;
71183;SDS011;58887;51.980;4.464;2023-09-19T03:40:50;2.84;;;1.96;;
71183;SDS011;58887;51.980;4.464;2023-09-19T03:43:16;3.44;;;2.39;;
71183;SDS011;58887;51.980;4.464;2023-09-19T03:45:42;3.39;;;2.36;;
71183;SDS011;58887;51.980;4.464;2023-09-19T03:48:10;2.47;;;1.75;;
71183;SDS011;58887;51.980;4.464;2023-09-19T03:50:36;3.21;;;2.27;;
71183;SDS011;58887;51.980;4.464;2023-09-19T03:53:02;3.18;;;2.25;;
71183;SDS011;58887;51.980;4.464;2023-09-19T03:55:28;3.58;;;2.48;;
71183;SDS011;58887;51.980;4.464;2023-09-19T03:57:55;2.79;;;1.97;;
71183;SDS011;58887;51.980;4.464;2023-09-19T04:00:21;2.56;;;1.86;;
71183;SDS011;58887;51.980;4.464;2023-09-19T04:02:51;2.50;;;1.82;;
71183;SDS011;58887;51.980;4.464;2023-09-19T04:05:17;2.53;;;1.80;;
71183;SDS011;58887;51.980;4.464;2023-09-19T04:07:43;2.74;;;1.98;;
71183;SDS011;58887;51.980;4.464;2023-09-19T04:10:09;2.35;;;1.74;;
71183;SDS011;58887;51.980;4.464;2023-09-19T04:12:36;2.72;;;1.98;;
71183;SDS011;58887;51.980;4.464;2023-09-19T04:15:04;2.91;;;2.09;;
71183;SDS011;58887;51.980;4.464;2023-09-19T04:17:30;2.64;;;1.90;;
71183;SDS011;58887;51.980;4.464;2023-09-19T04:19:58;2.97;;;2.17;;
71183;SDS011;58887;51.980;4.464;2023-09-19T04:22:24;2.66;;;1.95;;
71183;SDS011;58887;51.980;4.464;2023-09-19T04:24:49;3.32;;;2.42;;
71183;SDS011;58887;51.980;4.464;2023-09-19T04:27:15;3.34;;;2.37;;
71183;SDS011;58887;51.980;4.464;2023-09-19T04:29:40;3.25;;;2.25;;
71183;SDS011;58887;51.980;4.464;2023-09-19T04:32:09;3.03;;;2.12;;
71183;SDS011;58887;51.980;4.464;2023-09-19T04:34:35;3.03;;;2.12;;
71183;SDS011;58887;51.980;4.464;2023-09-19T04:37:01;2.33;;;1.64;;
71183;SDS011;58887;51.980;4.464;2023-09-19T04:39:29;3.39;;;2.41;;
71183;SDS011;58887;51.980;4.464;2023-09-19T04:41:54;2.58;;;1.81;;
71183;SDS011;58887;51.980;4.464;2023-09-19T04:44:20;3.32;;;2.31;;
71183;SDS011;58887;51.980;4.464;2023-09-19T04:46:46;3.08;;;2.15;;
71183;SDS011;58887;51.980;4.464;2023-09-19T04:49:12;2.54;;;1.79;;
71183;SDS011;58887;51.980;4.464;2023-09-19T04:51:38;3.31;;;2.29;;
71183;SDS011;58887;51.980;4.464;2023-09-19T04:54:04;2.98;;;2.04;;
71183;SDS011;58887;51.980;4.464;2023-09-19T04:56:30;2.56;;;1.77;;
71183;SDS011;58887;51.980;4.464;2023-09-19T04:58:57;2.51;;;1.75;;
71183;SDS011;58887;51.980;4.464;2023-09-19T05:01:23;2.60;;;1.78;;
71183;SDS011;58887;51.980;4.464;2023-09-19T05:03:50;2.68;;;1.89;;
71183;SDS011;58887;51.980;4.464;2023-09-19T05:06:21;2.73;;;1.97;;
71183;SDS011;58887;51.980;4.464;2023-09-19T05:08:47;2.77;;;1.98;;
71183;SDS011;58887;51.980;4.464;2023-09-19T05:11:20;2.75;;;1.97;;
71183;SDS011;58887;51.980;4.464;2023-09-19T05:13:48;2.78;;;2.01;;
71183;SDS011;58887;51.980;4.464;2023-09-19T05:16:15;2.77;;;2.01;;
71183;SDS011;58887;51.980;4.464;2023-09-19T05:18:41;2.49;;;1.82;;
71183;SDS011;58887;51.980;4.464;2023-09-19T05:21:07;2.43;;;1.78;;
71183;SDS011;58887;51.980;4.464;2023-09-19T05:23:33;3.17;;;2.36;;
71183;SDS011;58887;51.980;4.464;2023-09-19T05:25:58;2.69;;;2.03;;
71183;SDS011;58887;51.980;4.464;2023-09-19T05:28:25;3.45;;;2.49;;
71183;SDS011;58887;51.980;4.464;2023-09-19T05:30:52;2.78;;;1.99;;
71183;SDS011;58887;51.980;4.464;2023-09-19T05:33:18;3.72;;;2.66;;
71183;SDS011;58887;51.980;4.464;2023-09-19T05:35:45;3.34;;;2.42;;
71183;SDS011;58887;51.980;4.464;2023-09-19T05:38:17;2.77;;;2.01;;
71183;SDS011;58887;51.980;4.464;2023-09-19T05:40:45;3.23;;;2.32;;
71183;SDS011;58887;51.980;4.464;2023-09-19T05:43:11;2.97;;;2.13;;
71183;SDS011;58887;51.980;4.464;2023-09-19T05:45:37;3.14;;;2.24;;
71183;SDS011;58887;51.980;4.464;2023-09-19T05:48:10;3.36;;;2.37;;
71183;SDS011;58887;51.980;4.464;2023-09-19T05:50:38;3.18;;;2.26;;
71183;SDS011;58887;51.980;4.464;2023-09-19T05:53:05;3.25;;;2.25;;
71183;SDS011;58887;51.980;4.464;2023-09-19T05:55:33;3.65;;;2.53;;
71183;SDS011;58887;51.980;4.464;2023-09-19T05:57:59;4.07;;;2.77;;
71183;SDS011;58887;51.980;4.464;2023-09-19T06:00:25;3.29;;;2.25;;
71183;SDS011;58887;51.980;4.464;2023-09-19T06:02:53;3.58;;;2.50;;
71183;SDS011;58887;51.980;4.464;2023-09-19T06:05:19;3.20;;;2.24;;
71183;SDS011;58887;51.980;4.464;2023-09-19T06:07:45;3.65;;;2.50;;
71183;SDS011;58887;51.980;4.464;2023-09-19T06:10:12;3.58;;;2.48;;
71183;SDS011;58887;51.980;4.464;2023-09-19T06:12:38;3.91;;;2.79;;
71183;SDS011;58887;51.980;4.464;2023-09-19T06:15:05;3.85;;;2.70;;
71183;SDS011;58887;51.980;4.464;2023-09-19T06:17:33;3.84;;;2.70;;
71183;SDS011;58887;51.980;4.464;2023-09-19T06:20:04;3.79;;;2.69;;
71183;SDS011;58887;51.980;4.464;2023-09-19T06:22:36;3.59;;;2.53;;
71183;SDS011;58887;51.980;4.464;2023-09-19T06:25:02;3.52;;;2.47;;
71183;SDS011;58887;51.980;4.464;2023-09-19T06:27:28;4.11;;;2.93;;
71183;SDS011;58887;51.980;4.464;2023-09-19T06:29:54;3.70;;;2.62;;
71183;SDS011;58887;51.980;4.464;2023-09-19T06:32:26;3.48;;;2.44;;
71183;SDS011;58887;51.980;4.464;2023-09-19T06:34:52;3.38;;;2.35;;
71183;SDS011;58887;51.980;4.464;2023-09-19T06:37:20;4.22;;;2.96;;
71183;SDS011;58887;51.980;4.464;2023-09-19T06:39:47;3.12;;;2.18;;
71183;SDS011;58887;51.980;4.464;2023-09-19T06:42:15;3.85;;;2.68;;
71183;SDS011;58887;51.980;4.464;2023-09-19T06:44:42;3.47;;;2.41;;
71183;SDS011;58887;51.980;4.464;2023-09-19T06:47:08;3.99;;;2.82;;
71183;SDS011;58887;51.980;4.464;2023-09-19T06:49:35;3.78;;;2.66;;
71183;SDS011;58887;51.980;4.464;2023-09-19T06:52:00;3.14;;;2.26;;
71183;SDS011;58887;51.980;4.464;2023-09-19T06:54:26;3.66;;;2.57;;
71183;SDS011;58887;51.980;4.464;2023-09-19T06:56:56;4.43;;;3.11;;
71183;SDS011;58887;51.980;4.464;2023-09-19T06:59:24;3.61;;;2.53;;
71183;SDS011;58887;51.980;4.464;2023-09-19T07:01:49;3.34;;;2.37;;
71183;SDS011;58887;51.980;4.464;2023-09-19T07:04:16;3.15;;;2.24;;
71183;SDS011;58887;51.980;4.464;2023-09-19T07:06:43;3.69;;;2.67;;
71183;SDS011;58887;51.980;4.464;2023-09-19T07:09:08;3.31;;;2.43;;
71183;SDS011;58887;51.980;4.464;2023-09-19T07:11:34;3.38;;;2.45;;
71183;SDS011;58887;51.980;4.464;2023-09-19T07:14:00;3.53;;;2.52;;
71183;SDS011;58887;51.980;4.464;2023-09-19T07:16:28;3.39;;;2.42;;
71183;SDS011;58887;51.980;4.464;2023-09-19T07:18:54;3.64;;;2.62;;
71183;SDS011;58887;51.980;4.464;2023-09-19T07:21:21;4.24;;;2.96;;
71183;SDS011;58887;51.980;4.464;2023-09-19T07:23:47;3.69;;;2.58;;
71183;SDS011;58887;51.980;4.464;2023-09-19T07:26:13;3.69;;;2.57;;
71183;SDS011;58887;51.980;4.464;2023-09-19T07:28:39;4.10;;;2.83;;
71183;SDS011;58887;51.980;4.464;2023-09-19T07:31:04;3.82;;;2.65;;
71183;SDS011;58887;51.980;4.464;2023-09-19T07:33:30;3.81;;;2.66;;
71183;SDS011;58887;51.980;4.464;2023-09-19T07:35:56;4.21;;;2.95;;
71183;SDS011;58887;51.980;4.464;2023-09-19T07:38:22;3.41;;;2.39;;
71183;SDS011;58887;51.980;4.464;2023-09-19T07:40:47;3.70;;;2.63;;
71183;SDS011;58887;51.980;4.464;2023-09-19T07:43:13;3.37;;;2.43;;
71183;SDS011;58887;51.980;4.464;2023-09-19T07:45:39;3.92;;;2.82;;
71183;SDS011;58887;51.980;4.464;2023-09-19T07:48:05;4.16;;;2.98;;
71183;SDS011;58887;51.980;4.464;2023-09-19T07:50:33;3.57;;;2.57;;
71183;SDS011;58887;51.980;4.464;2023-09-19T07:53:01;3.75;;;2.69;;
71183;SDS011;58887;51.980;4.464;2023-09-19T07:55:30;3.91;;;2.78;;
71183;SDS011;58887;51.980;4.464;2023-09-19T07:57:56;4.47;;;3.13;;
71183;SDS011;58887;51.980;4.464;2023-09-19T08:00:26;3.84;;;2.65;;
71183;SDS011;58887;51.980;4.464;2023-09-19T08:03:10;4.88;;;3.35;;
71183;SDS011;58887;51.980;4.464;2023-09-19T08:05:39;4.14;;;2.86;;
71183;SDS011;58887;51.980;4.464;2023-09-19T08:08:08;4.35;;;2.95;;
71183;SDS011;58887;51.980;4.464;2023-09-19T08:10:34;4.42;;;2.98;;
71183;SDS011;58887;51.980;4.464;2023-09-19T08:13:00;3.75;;;2.56;;
71183;SDS011;58887;51.980;4.464;2023-09-19T08:15:27;4.46;;;3.05;;
71183;SDS011;58887;51.980;4.464;2023-09-19T08:17:52;4.48;;;3.09;;
71183;SDS011;58887;51.980;4.464;2023-09-19T08:20:18;2.83;;;2.02;;
71183;SDS011;58887;51.980;4.464;2023-09-19T08:22:50;3.20;;;2.29;;
71183;SDS011;58887;51.980;4.464;2023-09-19T08:25:19;3.98;;;2.80;;
71183;SDS011;58887;51.980;4.464;2023-09-19T08:27:50;4.14;;;2.92;;
71183;SDS011;58887;51.980;4.464;2023-09-19T08:30:16;4.00;;;2.85;;
71183;SDS011;58887;51.980;4.464;2023-09-19T08:32:49;3.64;;;2.60;;
71183;SDS011;58887;51.980;4.464;2023-09-19T08:35:15;3.79;;;2.76;;
71183;SDS011;58887;51.980;4.464;2023-09-19T08:37:42;3.58;;;2.53;;
71183;SDS011;58887;51.980;4.464;2023-09-19T08:40:08;4.46;;;3.10;;
71183;SDS011;58887;51.980;4.464;2023-09-19T08:45:25;4.57;;;3.24;;
71183;SDS011;58887;51.980;4.464;2023-09-19T08:50:28;4.14;;;2.82;;
71183;SDS011;58887;51.980;4.464;2023-09-19T08:52:55;5.28;;;3.53;;
71183;SDS011;58887;51.980;4.464;2023-09-19T08:55:26;4.76;;;3.18;;
71183;SDS011;58887;51.980;4.464;2023-09-19T08:57:59;4.78;;;3.21;;
71183;SDS011;58887;51.980;4.464;2023-09-19T09:00:28;4.12;;;2.88;;
71183;SDS011;58887;51.980;4.464;2023-09-19T09:02:56;4.17;;;2.89;;
71183;SDS011;58887;51.980;4.464;2023-09-19T09:05:23;3.96;;;2.76;;
71183;SDS011;58887;51.980;4.464;2023-09-19T09:07:49;3.93;;;2.76;;
71183;SDS011;58887;51.980;4.464;2023-09-19T09:10:20;4.42;;;3.03;;
71183;SDS011;58887;51.980;4.464;2023-09-19T09:12:52;4.78;;;3.30;;
71183;SDS011;58887;51.980;4.464;2023-09-19T09:15:21;4.20;;;2.88;;
71183;SDS011;58887;51.980;4.464;2023-09-19T09:17:49;4.31;;;2.98;;
71183;SDS011;58887;51.980;4.464;2023-09-19T09:20:18;4.02;;;2.76;;
71183;SDS011;58887;51.980;4.464;2023-09-19T09:22:51;3.93;;;2.63;;
71183;SDS011;58887;51.980;4.464;2023-09-19T09:25:20;4.29;;;2.89;;
71183;SDS011;58887;51.980;4.464;2023-09-19T09:27:59;3.71;;;2.52;;
71183;SDS011;58887;51.980;4.464;2023-09-19T09:30:35;3.25;;;2.25;;
71183;SDS011;58887;51.980;4.464;2023-09-19T09:33:13;3.92;;;2.78;;
71183;SDS011;58887;51.980;4.464;2023-09-19T09:35:57;3.46;;;2.48;;
71183;SDS011;58887;51.980;4.464;2023-09-19T09:38:28;3.44;;;2.45;;
71183;SDS011;58887;51.980;4.464;2023-09-19T09:40:59;4.06;;;2.85;;
71183;SDS011;58887;51.980;4.464;2023-09-19T09:43:32;3.69;;;2.61;;
71183;SDS011;58887;51.980;4.464;2023-09-19T09:46:20;3.55;;;2.54;;
71183;SDS011;58887;51.980;4.464;2023-09-19T09:48:56;3.14;;;2.26;;
71183;SDS011;58887;51.980;4.464;2023-09-19T09:54:24;3.56;;;2.51;;
71183;SDS011;58887;51.980;4.464;2023-09-19T09:57:02;3.06;;;2.20;;
71183;SDS011;58887;51.980;4.464;2023-09-19T09:59:54;2.91;;;2.12;;
71183;SDS011;58887;51.980;4.464;2023-09-19T10:02:37;3.20;;;2.32;;
71183;SDS011;58887;51.980;4.464;2023-09-19T10:05:15;3.02;;;2.18;;
71183;SDS011;58887;51.980;4.464;2023-09-19T10:07:44;3.01;;;2.18;;
71183;SDS011;58887;51.980;4.464;2023-09-19T10:10:37;3.39;;;2.41;;
71183;SDS011;58887;51.980;4.464;2023-09-19T10:13:07;2.71;;;1.96;;
71183;SDS011;58887;51.980;4.464;2023-09-19T10:15:38;2.67;;;1.99;;
71183;SDS011;58887;51.980;4.464;2023-09-19T10:18:10;2.78;;;2.08;;
71183;SDS011;58887;51.980;4.464;2023-09-19T10:20:42;2.50;;;1.88;;
71183;SDS011;58887;51.980;4.464;2023-09-19T10:23:10;2.24;;;1.70;;
71183;SDS011;58887;51.980;4.464;2023-09-19T10:25:38;2.91;;;2.18;;
71183;SDS011;58887;51.980;4.464;2023-09-19T10:28:06;2.67;;;2.01;;
71183;SDS011;58887;51.980;4.464;2023-09-19T10:30:46;2.76;;;2.12;;
71183;SDS011;58887;51.980;4.464;2023-09-19T10:33:15;2.40;;;1.84;;
71183;SDS011;58887;51.980;4.464;2023-09-19T10:35:45;2.11;;;1.63;;
71183;SDS011;58887;51.980;4.464;2023-09-19T10:38:13;2.52;;;1.88;;
71183;SDS011;58887;51.980;4.464;2023-09-19T10:40:42;2.45;;;1.80;;
71183;SDS011;58887;51.980;4.464;2023-09-19T10:43:12;2.27;;;1.65;;
71183;SDS011;58887;51.980;4.464;2023-09-19T10:45:42;2.38;;;1.73;;
71183;SDS011;58887;51.980;4.464;2023-09-19T10:48:09;2.27;;;1.61;;
71183;SDS011;58887;51.980;4.464;2023-09-19T10:50:42;2.87;;;2.01;;
71183;SDS011;58887;51.980;4.464;2023-09-19T10:53:30;2.62;;;1.82;;
71183;SDS011;58887;51.980;4.464;2023-09-19T10:56:09;2.68;;;1.87;;
71183;SDS011;58887;51.980;4.464;2023-09-19T10:58:42;2.59;;;1.83;;
71183;SDS011;58887;51.980;4.464;2023-09-19T11:01:10;2.22;;;1.58;;
71183;SDS011;58887;51.980;4.464;2023-09-19T11:03:43;2.88;;;2.02;;
71183;SDS011;58887;51.980;4.464;2023-09-19T11:06:10;2.50;;;1.75;;
71183;SDS011;58887;51.980;4.464;2023-09-19T11:11:43;2.30;;;1.62;;
71183;SDS011;58887;51.980;4.464;2023-09-19T11:30:47;2.51;;;1.79;;
71183;SDS011;58887;51.980;4.464;2023-09-19T11:33:22;2.02;;;1.45;;
71183;SDS011;58887;51.980;4.464;2023-09-19T11:36:14;2.45;;;1.79;;
71183;SDS011;58887;51.980;4.464;2023-09-19T11:46:29;1.94;;;1.44;;
71183;SDS011;58887;51.980;4.464;2023-09-19T11:49:04;2.15;;;1.62;;
71183;SDS011;58887;51.980;4.464;2023-09-19T11:51:39;1.90;;;1.45;;
71183;SDS011;58887;51.980;4.464;2023-09-19T11:54:10;2.02;;;1.57;;
71183;SDS011;58887;51.980;4.464;2023-09-19T11:59:22;1.72;;;1.36;;
71183;SDS011;58887;51.980;4.464;2023-09-19T12:01:53;1.70;;;1.33;;
71183;SDS011;58887;51.980;4.464;2023-09-19T12:04:55;1.61;;;1.25;;
71183;SDS011;58887;51.980;4.464;2023-09-19T12:07:18;2.11;;;1.64;;
71183;SDS011;58887;51.980;4.464;2023-09-19T12:10:02;2.06;;;1.59;;
71183;SDS011;58887;51.980;4.464;2023-09-19T12:12:29;1.65;;;1.26;;
71183;SDS011;58887;51.980;4.464;2023-09-19T12:14:55;1.56;;;1.21;;
71183;SDS011;58887;51.980;4.464;2023-09-19T12:17:34;1.99;;;1.53;;
71183;SDS011;58887;51.980;4.464;2023-09-19T12:20:05;1.84;;;1.42;;
71183;SDS011;58887;51.980;4.464;2023-09-19T12:22:44;1.70;;;1.32;;
71183;SDS011;58887;51.980;4.464;2023-09-19T12:25:11;1.50;;;1.17;;
71183;SDS011;58887;51.980;4.464;2023-09-19T12:27:42;1.83;;;1.44;;
71183;SDS011;58887;51.980;4.464;2023-09-19T12:30:12;1.78;;;1.39;;
71183;SDS011;58887;51.980;4.464;2023-09-19T12:32:44;1.59;;;1.24;;
71183;SDS011;58887;51.980;4.464;2023-09-19T12:35:11;1.75;;;1.35;;
71183;SDS011;58887;51.980;4.464;2023-09-19T12:38:01;1.57;;;1.24;;
71183;SDS011;58887;51.980;4.464;2023-09-19T12:40:28;1.49;;;1.21;;
71183;SDS011;58887;51.980;4.464;2023-09-19T12:42:58;1.56;;;1.27;;
71183;SDS011;58887;51.980;4.464;2023-09-19T12:45:25;1.66;;;1.35;;
71183;SDS011;58887;51.980;4.464;2023-09-19T12:53:25;1.61;;;1.35;;
71183;SDS011;58887;51.980;4.464;2023-09-19T12:56:00;1.72;;;1.42;;
71183;SDS011;58887;51.980;4.464;2023-09-19T12:58:26;1.77;;;1.43;;
71183;SDS011;58887;51.980;4.464;2023-09-19T13:00:55;1.42;;;1.16;;
71183;SDS011;58887;51.980;4.464;2023-09-19T13:06:00;1.84;;;1.51;;
71183;SDS011;58887;51.980;4.464;2023-09-19T13:08:33;1.69;;;1.37;;
71183;SDS011;58887;51.980;4.464;2023-09-19T13:11:06;1.76;;;1.41;;
71183;SDS011;58887;51.980;4.464;2023-09-19T13:25:13;1.54;;;1.27;;
71183;SDS011;58887;51.980;4.464;2023-09-19T13:27:40;1.86;;;1.52;;
71183;SDS011;58887;51.980;4.464;2023-09-19T13:30:06;1.76;;;1.43;;
71183;SDS011;58887;51.980;4.464;2023-09-19T13:32:32;2.16;;;1.75;;
71183;SDS011;58887;51.980;4.464;2023-09-19T13:34:58;2.54;;;2.05;;
71183;SDS011;58887;51.980;4.464;2023-09-19T13:37:24;2.22;;;1.81;;
71183;SDS011;58887;51.980;4.464;2023-09-19T13:39:51;2.09;;;1.70;;
71183;SDS011;58887;51.980;4.464;2023-09-19T13:42:17;2.23;;;1.81;;
71183;SDS011;58887;51.980;4.464;2023-09-19T13:44:43;2.22;;;1.81;;
71183;SDS011;58887;51.980;4.464;2023-09-19T13:47:09;2.16;;;1.77;;
71183;SDS011;58887;51.980;4.464;2023-09-19T13:49:38;2.09;;;1.69;;
71183;SDS011;58887;51.980;4.464;2023-09-19T13:52:03;2.40;;;1.94;;
71183;SDS011;58887;51.980;4.464;2023-09-19T13:54:30;2.05;;;1.70;;
71183;SDS011;58887;51.980;4.464;2023-09-19T13:56:55;1.95;;;1.61;;
71183;SDS011;58887;51.980;4.464;2023-09-19T13:59:21;2.42;;;2.01;;
71183;SDS011;58887;51.980;4.464;2023-09-19T14:01:49;2.47;;;2.02;;
71183;SDS011;58887;51.980;4.464;2023-09-19T14:04:15;2.56;;;2.09;;
71183;SDS011;58887;51.980;4.464;2023-09-19T14:06:42;1.96;;;1.61;;
71183;SDS011;58887;51.980;4.464;2023-09-19T14:09:08;2.26;;;1.89;;
71183;SDS011;58887;51.980;4.464;2023-09-19T14:11:35;1.86;;;1.58;;
71183;SDS011;58887;51.980;4.464;2023-09-19T14:14:01;2.03;;;1.71;;
71183;SDS011;58887;51.980;4.464;2023-09-19T14:16:29;2.57;;;2.13;;
71183;SDS011;58887;51.980;4.464;2023-09-19T14:18:56;2.40;;;1.98;;
71183;SDS011;58887;51.980;4.464;2023-09-19T14:21:23;2.87;;;2.37;;
71183;SDS011;58887;51.980;4.464;2023-09-19T14:23:49;2.37;;;1.98;;
71183;SDS011;58887;51.980;4.464;2023-09-19T14:26:14;2.05;;;1.72;;
71183;SDS011;58887;51.980;4.464;2023-09-19T14:28:41;2.04;;;1.72;;
71183;SDS011;58887;51.980;4.464;2023-09-19T14:31:07;1.95;;;1.66;;
71183;SDS011;58887;51.980;4.464;2023-09-19T14:33:35;2.13;;;1.80;;
71183;SDS011;58887;51.980;4.464;2023-09-19T14:36:04;2.74;;;2.28;;
71183;SDS011;58887;51.980;4.464;2023-09-19T14:38:32;1.96;;;1.64;;
71183;SDS011;58887;51.980;4.464;2023-09-19T14:41:02;2.34;;;1.95;;
71183;SDS011;58887;51.980;4.464;2023-09-19T14:43:29;2.37;;;1.96;;
71183;SDS011;58887;51.980;4.464;2023-09-19T14:46:04;2.52;;;2.10;;
71183;SDS011;58887;51.980;4.464;2023-09-19T14:48:35;2.29;;;1.91;;
71183;SDS011;58887;51.980;4.464;2023-09-19T14:51:04;2.24;;;1.87;;
71183;SDS011;58887;51.980;4.464;2023-09-19T14:53:31;2.15;;;1.84;;
71183;SDS011;58887;51.980;4.464;2023-09-19T14:55:59;1.91;;;1.65;;
71183;SDS011;58887;51.980;4.464;2023-09-19T14:58:32;2.01;;;1.73;;
71183;SDS011;58887;51.980;4.464;2023-09-19T15:01:05;2.04;;;1.75;;
71183;SDS011;58887;51.980;4.464;2023-09-19T15:03:32;2.93;;;2.42;;
71183;SDS011;58887;51.980;4.464;2023-09-19T15:06:19;2.36;;;1.99;;
71183;SDS011;58887;51.980;4.464;2023-09-19T15:08:45;2.52;;;2.08;;
71183;SDS011;58887;51.980;4.464;2023-09-19T15:11:13;2.95;;;2.42;;
71183;SDS011;58887;51.980;4.464;2023-09-19T15:13:45;2.81;;;2.28;;
71183;SDS011;58887;51.980;4.464;2023-09-19T15:16:12;2.45;;;2.05;;
71183;SDS011;58887;51.980;4.464;2023-09-19T15:18:44;2.74;;;2.32;;
71183;SDS011;58887;51.980;4.464;2023-09-19T15:21:13;2.55;;;2.14;;
71183;SDS011;58887;51.980;4.464;2023-09-19T15:23:40;2.37;;;1.98;;
71183;SDS011;58887;51.980;4.464;2023-09-19T15:26:08;2.84;;;2.38;;
71183;SDS011;58887;51.980;4.464;2023-09-19T15:28:34;1.93;;;1.64;;
71183;SDS011;58887;51.980;4.464;2023-09-19T15:33:29;2.54;;;2.19;;
71183;SDS011;58887;51.980;4.464;2023-09-19T15:36:02;2.11;;;1.84;;
71183;SDS011;58887;51.980;4.464;2023-09-19T15:41:23;2.40;;;2.05;;
71183;SDS011;58887;51.980;4.464;2023-09-19T15:43:49;2.28;;;1.99;;
71183;SDS011;58887;51.980;4.464;2023-09-19T15:46:15;1.86;;;1.67;;
71183;SDS011;58887;51.980;4.464;2023-09-19T15:48:41;1.96;;;1.77;;
71183;SDS011;58887;51.980;4.464;2023-09-19T15:51:11;1.83;;;1.64;;
71183;SDS011;58887;51.980;4.464;2023-09-19T15:53:46;2.23;;;1.95;;
71183;SDS011;58887;51.980;4.464;2023-09-19T15:56:13;2.00;;;1.74;;
71183;SDS011;58887;51.980;4.464;2023-09-19T15:58:46;2.00;;;1.77;;
71183;SDS011;58887;51.980;4.464;2023-09-19T16:01:13;1.81;;;1.60;;
71183;SDS011;58887;51.980;4.464;2023-09-19T16:03:40;1.98;;;1.74;;
71183;SDS011;58887;51.980;4.464;2023-09-19T16:06:09;2.14;;;1.87;;
71183;SDS011;58887;51.980;4.464;2023-09-19T16:08:42;1.90;;;1.66;;
71183;SDS011;58887;51.980;4.464;2023-09-19T16:11:12;2.31;;;2.01;;
71183;SDS011;58887;51.980;4.464;2023-09-19T16:13:39;2.29;;;1.98;;
71183;SDS011;58887;51.980;4.464;2023-09-19T16:16:09;2.29;;;2.00;;